createdAt,value
2019-03-21T00:01:00.244Z,13.40
2019-03-21T00:03:31.229Z,13.50
2019-03-21T00:06:02.422Z,13.40
2019-03-21T00:08:33.472Z,13.40
2019-03-21T00:11:49.385Z,13.40
2019-03-21T00:14:27.867Z,13.40
2019-03-21T00:16:58.949Z,13.30
2019-03-21T00:19:29.993Z,13.30
2019-03-21T00:22:01.023Z,13.30
2019-03-21T00:24:32.109Z,13.30
2019-03-21T00:27:03.200Z,13.30
2019-03-21T00:29:34.367Z,13.20
2019-03-21T00:32:06.525Z,13.20
2019-03-21T00:34:37.557Z,13.20
2019-03-21T00:37:08.681Z,13.10
2019-03-21T00:39:39.766Z,13.10
2019-03-21T00:42:10.824Z,13.10
2019-03-21T00:44:41.815Z,13.10
2019-03-21T00:47:12.978Z,13.10
2019-03-21T00:49:44.342Z,13.00
2019-03-21T00:52:15.345Z,13.00
2019-03-21T00:54:46.441Z,13.00
2019-03-21T00:57:17.499Z,13.00
2019-03-21T00:59:48.442Z,12.90
2019-03-21T01:02:19.441Z,12.90
2019-03-21T01:04:50.555Z,12.90
2019-03-21T01:07:21.944Z,12.90
2019-03-21T01:09:52.861Z,12.90
2019-03-21T01:12:23.886Z,12.90
2019-03-21T01:14:54.979Z,12.80
2019-03-21T01:17:26.044Z,12.80
2019-03-21T01:19:57.127Z,12.80
2019-03-21T01:22:28.149Z,12.80
2019-03-21T01:24:59.085Z,12.80
2019-03-21T01:27:30.212Z,12.70
2019-03-21T01:30:01.198Z,12.80
2019-03-21T01:32:32.312Z,12.70
2019-03-21T01:35:04.398Z,12.70
2019-03-21T01:37:35.504Z,12.70
2019-03-21T01:40:08.560Z,12.70
2019-03-21T01:42:39.658Z,12.60
2019-03-21T01:45:12.808Z,12.60
2019-03-21T01:47:43.846Z,12.60
2019-03-21T01:50:15.939Z,12.60
2019-03-21T01:52:47.147Z,12.50
2019-03-21T01:55:18.135Z,12.50
2019-03-21T01:57:50.156Z,12.50
2019-03-21T02:00:24.341Z,12.50
2019-03-21T02:02:56.787Z,12.50
2019-03-21T02:05:28.289Z,12.50
2019-03-21T02:07:59.543Z,12.50
2019-03-21T02:10:30.733Z,12.50
2019-03-21T02:13:02.065Z,12.50
2019-03-21T02:15:33.217Z,12.40
2019-03-21T02:18:04.416Z,12.40
2019-03-21T02:20:35.524Z,12.40
2019-03-21T02:23:07.194Z,12.40
2019-03-21T02:25:38.232Z,12.40
2019-03-21T02:28:09.378Z,12.40
2019-03-21T02:30:40.581Z,12.40
2019-03-21T02:33:21.034Z,12.40
2019-03-21T02:35:52.257Z,12.40
2019-03-21T02:38:23.496Z,12.40
2019-03-21T02:40:54.984Z,12.40
2019-03-21T02:43:26.246Z,12.30
2019-03-21T02:45:58.387Z,12.30
2019-03-21T02:48:29.482Z,12.30
2019-03-21T02:51:00.650Z,12.30
2019-03-21T02:53:31.757Z,12.30
2019-03-21T02:56:03.585Z,12.30
2019-03-21T02:58:34.744Z,12.20
2019-03-21T03:01:06.212Z,12.20
2019-03-21T03:03:37.521Z,12.20
2019-03-21T03:06:08.720Z,12.20
2019-03-21T03:08:40.051Z,12.20
2019-03-21T03:11:11.575Z,12.20
2019-03-21T03:13:43.293Z,12.20
2019-03-21T03:16:14.250Z,12.20
2019-03-21T03:18:45.410Z,12.20
2019-03-21T03:21:17.539Z,12.20
2019-03-21T03:23:48.629Z,12.10
2019-03-21T03:26:19.737Z,12.10
2019-03-21T03:28:50.882Z,12.10
2019-03-21T03:31:22.055Z,12.10
2019-03-21T03:33:53.089Z,12.10
2019-03-21T03:36:24.206Z,12.10
2019-03-21T03:38:55.593Z,12.10
2019-03-21T03:41:26.680Z,12.10
2019-03-21T03:43:57.795Z,12.10
2019-03-21T03:46:28.845Z,12.10
2019-03-21T03:48:59.954Z,12.00
2019-03-21T03:51:31.270Z,12.00
2019-03-21T03:54:02.642Z,12.00
2019-03-21T03:56:33.693Z,12.00
2019-03-21T03:59:04.976Z,12.00
2019-03-21T04:01:37.682Z,12.00
2019-03-21T04:04:09.088Z,12.00
2019-03-21T04:06:40.219Z,12.00
2019-03-21T04:09:11.533Z,12.00
2019-03-21T04:11:42.866Z,11.90
2019-03-21T04:14:14.011Z,11.90
2019-03-21T04:16:45.086Z,11.90
2019-03-21T04:19:16.328Z,11.90
2019-03-21T04:21:47.309Z,11.90
2019-03-21T04:24:18.448Z,11.90
2019-03-21T04:26:49.657Z,11.80
2019-03-21T04:29:20.725Z,11.90
2019-03-21T04:31:51.782Z,11.80
2019-03-21T04:34:22.988Z,11.80
2019-03-21T04:36:54.940Z,11.80
2019-03-21T04:39:25.978Z,11.80
2019-03-21T04:41:58.170Z,11.80
2019-03-21T04:44:29.164Z,11.80
2019-03-21T04:47:00.183Z,11.80
2019-03-21T04:49:31.200Z,11.70
2019-03-21T04:52:02.183Z,11.70
2019-03-21T04:54:33.327Z,11.70
2019-03-21T04:57:04.418Z,11.70
2019-03-21T04:59:35.514Z,11.70
2019-03-21T05:02:06.631Z,11.70
2019-03-21T05:04:37.697Z,11.70
2019-03-21T05:07:08.611Z,11.70
2019-03-21T05:09:39.732Z,11.60
2019-03-21T05:12:10.985Z,11.60
2019-03-21T05:14:41.999Z,11.60
2019-03-21T05:17:13.048Z,11.60
2019-03-21T05:19:44.055Z,11.60
2019-03-21T05:22:16.180Z,11.60
2019-03-21T05:24:47.216Z,11.60
2019-03-21T05:27:18.198Z,11.60
2019-03-21T05:29:49.278Z,11.60
2019-03-21T05:32:20.365Z,11.50
2019-03-21T05:34:51.448Z,11.50
2019-03-21T05:37:22.454Z,11.60
2019-03-21T05:39:53.491Z,11.50
2019-03-21T05:42:25.824Z,11.50
2019-03-21T05:44:57.037Z,11.60
2019-03-21T05:47:28.136Z,11.50
2019-03-21T05:49:59.357Z,11.50
2019-03-21T05:52:30.371Z,11.50
2019-03-21T05:55:01.578Z,11.60
2019-03-21T05:57:32.689Z,11.60
2019-03-21T06:00:03.906Z,11.50
2019-03-21T06:02:35.232Z,11.60
2019-03-21T06:05:06.673Z,11.60
2019-03-21T06:08:01.176Z,11.60
2019-03-21T06:10:32.156Z,11.60
2019-03-21T06:13:04.541Z,11.70
2019-03-21T06:15:36.683Z,11.70
2019-03-21T06:18:54.353Z,11.70
2019-03-21T06:22:04.802Z,11.70
2019-03-21T06:25:03.463Z,11.70
2019-03-21T06:27:34.586Z,11.80
2019-03-21T06:30:07.393Z,11.80
2019-03-21T06:32:38.596Z,11.80
2019-03-21T06:35:20.607Z,11.80
2019-03-21T06:37:52.035Z,11.80
2019-03-21T06:40:23.285Z,11.80
2019-03-21T06:42:54.320Z,11.90
2019-03-21T06:45:25.419Z,11.90
2019-03-21T06:47:56.534Z,11.90
2019-03-21T06:50:27.503Z,12.00
2019-03-21T06:52:58.534Z,12.00
2019-03-21T06:55:29.642Z,12.00
2019-03-21T06:58:00.622Z,12.10
2019-03-21T07:00:31.552Z,12.10
2019-03-21T07:03:02.654Z,12.10
2019-03-21T07:05:33.674Z,12.20
2019-03-21T07:08:04.936Z,12.20
2019-03-21T07:10:35.961Z,12.30
2019-03-21T07:13:07.106Z,12.30
2019-03-21T07:15:38.248Z,12.30
2019-03-21T07:18:09.438Z,12.40
2019-03-21T07:20:40.476Z,12.50
2019-03-21T07:23:11.835Z,12.50
2019-03-21T07:25:43.073Z,12.60
2019-03-21T07:28:14.090Z,12.60
2019-03-21T07:30:45.957Z,12.70
2019-03-21T07:33:16.938Z,12.70
2019-03-21T07:35:47.956Z,12.80
2019-03-21T07:38:19.013Z,12.90
2019-03-21T07:40:50.133Z,12.90
2019-03-21T07:43:22.325Z,13.10
2019-03-21T07:45:53.597Z,13.10
2019-03-21T07:48:24.721Z,13.10
2019-03-21T07:50:55.819Z,13.20
2019-03-21T07:53:26.956Z,13.30
2019-03-21T07:55:58.126Z,13.40
2019-03-21T07:58:29.269Z,13.50
2019-03-21T08:01:00.547Z,13.50
2019-03-21T08:03:31.661Z,13.60
2019-03-21T08:06:02.957Z,13.70
2019-03-21T08:08:33.982Z,13.80
2019-03-21T08:11:05.266Z,13.90
2019-03-21T08:13:36.367Z,14.00
2019-03-21T08:16:09.018Z,14.10
2019-03-21T08:18:40.144Z,14.20
2019-03-21T08:21:11.173Z,14.30
2019-03-21T08:23:42.346Z,14.40
2019-03-21T08:26:13.416Z,14.50
2019-03-21T08:28:44.322Z,14.60
2019-03-21T08:31:19.176Z,14.70
2019-03-21T08:33:50.270Z,14.80
2019-03-21T08:36:21.403Z,14.90
2019-03-21T08:38:52.509Z,15.00
2019-03-21T08:41:23.467Z,15.20
2019-03-21T08:43:54.462Z,15.20
2019-03-21T08:46:25.511Z,15.30
2019-03-21T08:48:56.713Z,15.40
2019-03-21T08:51:27.699Z,15.60
2019-03-21T08:53:58.738Z,15.80
2019-03-21T08:56:29.879Z,16.00
2019-03-21T08:59:00.880Z,16.40
2019-03-21T09:01:32.566Z,16.80
2019-03-21T09:04:03.578Z,17.20
2019-03-21T09:06:34.669Z,17.70
2019-03-21T09:09:09.013Z,18.20
2019-03-21T09:11:40.782Z,18.70
2019-03-21T09:14:12.238Z,19.20
2019-03-21T09:16:43.247Z,19.60
2019-03-21T09:19:14.549Z,19.90
2019-03-21T09:21:45.624Z,20.10
2019-03-21T09:24:16.696Z,20.30
2019-03-21T09:26:48.014Z,20.50
2019-03-21T09:29:19.131Z,20.60
2019-03-21T09:31:51.283Z,20.70
2019-03-21T09:34:22.337Z,20.80
2019-03-21T09:36:53.441Z,20.80
2019-03-21T09:39:24.458Z,20.90
2019-03-21T09:41:55.456Z,20.90
2019-03-21T09:44:27.134Z,20.90
2019-03-21T09:46:58.430Z,20.90
2019-03-21T09:49:29.461Z,21.00
2019-03-21T09:52:00.512Z,21.10
2019-03-21T09:54:31.692Z,21.10
2019-03-21T09:57:02.628Z,21.20
2019-03-21T09:59:33.673Z,21.20
2019-03-21T10:02:04.730Z,21.30
2019-03-21T10:04:35.727Z,21.40
2019-03-21T10:07:06.877Z,21.50
2019-03-21T10:09:38.026Z,21.50
2019-03-21T10:12:09.047Z,21.60
2019-03-21T10:14:40.276Z,21.70
2019-03-21T10:17:11.365Z,21.80
2019-03-21T10:19:42.434Z,21.90
2019-03-21T10:22:13.440Z,21.90
2019-03-21T10:24:44.539Z,22.00
2019-03-21T10:27:15.629Z,22.20
2019-03-21T10:29:46.764Z,22.30
2019-03-21T10:32:17.807Z,22.40
2019-03-21T10:34:48.923Z,22.50
2019-03-21T10:37:20.069Z,22.60
2019-03-21T10:39:51.576Z,22.80
2019-03-21T10:42:22.773Z,22.90
2019-03-21T10:44:53.849Z,23.00
2019-03-21T10:47:25.824Z,23.20
2019-03-21T10:49:58.500Z,23.20
2019-03-21T10:52:29.904Z,23.40
2019-03-21T10:55:00.881Z,23.50
2019-03-21T10:57:32.204Z,23.60
2019-03-21T11:00:06.972Z,23.70
2019-03-21T11:02:38.593Z,23.80
2019-03-21T11:05:09.653Z,23.90
2019-03-21T11:07:41.782Z,23.90
2019-03-21T11:10:12.810Z,24.10
2019-03-21T11:12:44.033Z,24.20
2019-03-21T11:15:15.178Z,24.30
2019-03-21T11:17:46.512Z,24.30
2019-03-21T11:20:27.849Z,24.40
2019-03-21T11:22:59.849Z,24.50
2019-03-21T11:25:31.018Z,24.60
2019-03-21T11:28:02.107Z,24.70
2019-03-21T11:30:34.732Z,24.80
2019-03-21T11:33:06.259Z,24.90
2019-03-21T11:35:37.588Z,25.00
2019-03-21T11:38:08.744Z,25.10
2019-03-21T11:40:40.694Z,25.20
2019-03-21T11:43:14.605Z,25.20
2019-03-21T11:45:47.688Z,25.30
2019-03-21T11:48:18.384Z,25.30
2019-03-21T11:50:49.555Z,25.40
2019-03-21T11:53:20.598Z,25.40
2019-03-21T11:55:51.607Z,25.40
2019-03-21T11:58:22.781Z,25.50
2019-03-21T12:00:53.758Z,25.50
2019-03-21T12:03:24.757Z,25.50
2019-03-21T12:05:55.789Z,25.50
2019-03-21T12:08:26.879Z,25.50
2019-03-21T12:10:57.912Z,25.50
2019-03-21T12:13:28.916Z,25.60
2019-03-21T12:15:59.956Z,25.60
2019-03-21T12:18:30.923Z,25.70
2019-03-21T12:21:01.954Z,25.70
2019-03-21T12:23:32.997Z,25.80
2019-03-21T12:26:04.081Z,25.90
2019-03-21T12:28:35.098Z,26.00
2019-03-21T12:31:06.099Z,26.00
2019-03-21T12:33:37.181Z,26.10
2019-03-21T12:36:08.384Z,26.20
2019-03-21T12:38:39.497Z,26.30
2019-03-21T12:41:10.538Z,26.30
2019-03-21T12:43:41.629Z,26.30
2019-03-21T12:46:12.797Z,26.40
2019-03-21T12:48:43.890Z,26.50
2019-03-21T12:51:15.058Z,26.60
2019-03-21T12:53:46.151Z,26.60
2019-03-21T12:56:17.333Z,26.70
2019-03-21T12:58:48.553Z,26.70
2019-03-21T13:01:19.716Z,26.70
2019-03-21T13:03:50.851Z,26.70
2019-03-21T13:06:21.877Z,26.70
2019-03-21T13:08:52.779Z,26.70
2019-03-21T13:11:24.124Z,26.70
2019-03-21T13:13:55.211Z,26.70
2019-03-21T13:16:26.341Z,26.80
2019-03-21T13:18:57.361Z,26.70
2019-03-21T13:21:28.806Z,26.80
2019-03-21T13:23:59.919Z,26.70
2019-03-21T13:26:30.959Z,26.70
2019-03-21T13:29:01.942Z,26.60
2019-03-21T13:31:32.959Z,26.50
2019-03-21T13:34:04.078Z,26.40
2019-03-21T13:36:35.253Z,26.30
2019-03-21T13:39:08.536Z,26.20
2019-03-21T13:41:40.981Z,26.10
2019-03-21T13:44:12.070Z,25.90
2019-03-21T13:46:43.154Z,25.70
2019-03-21T13:49:15.143Z,25.60
2019-03-21T13:51:46.353Z,25.40
2019-03-21T13:54:17.421Z,25.30
2019-03-21T13:56:48.485Z,25.10
2019-03-21T13:59:19.524Z,25.00
2019-03-21T14:01:52.269Z,24.80
2019-03-21T14:04:24.385Z,24.60
2019-03-21T14:06:55.406Z,24.50
2019-03-21T14:09:26.731Z,24.30
2019-03-21T14:11:57.803Z,24.20
2019-03-21T14:14:29.102Z,24.00
2019-03-21T14:17:00.167Z,23.90
2019-03-21T14:19:31.218Z,23.80
2019-03-21T14:22:02.636Z,23.60
2019-03-21T14:24:33.711Z,23.50
2019-03-21T14:27:04.739Z,23.40
2019-03-21T14:29:35.786Z,23.20
2019-03-21T14:32:06.973Z,23.10
2019-03-21T14:34:37.990Z,23.00
2019-03-21T14:37:09.191Z,22.90
2019-03-21T14:39:40.210Z,22.80
2019-03-21T14:42:11.627Z,22.70
2019-03-21T14:44:42.766Z,22.60
2019-03-21T14:47:13.916Z,22.60
2019-03-21T14:49:45.078Z,22.50
2019-03-21T14:52:16.091Z,22.40
2019-03-21T14:54:47.217Z,22.30
2019-03-21T14:57:18.255Z,22.30
2019-03-21T14:59:49.357Z,22.20
2019-03-21T15:02:20.369Z,22.10
2019-03-21T15:04:51.989Z,22.10
2019-03-21T15:07:23.433Z,22.00
2019-03-21T15:09:54.524Z,21.90
2019-03-21T15:12:25.705Z,21.90
2019-03-21T15:14:56.832Z,21.80
2019-03-21T15:17:27.866Z,21.70
2019-03-21T15:19:59.069Z,21.70
2019-03-21T15:22:30.164Z,21.60
2019-03-21T15:25:01.313Z,21.60
2019-03-21T15:27:32.404Z,21.60
2019-03-21T15:30:03.609Z,21.50
2019-03-21T15:32:35.274Z,21.40
2019-03-21T15:35:08.468Z,21.40
2019-03-21T15:37:39.483Z,21.30
2019-03-21T15:40:12.173Z,21.30
2019-03-21T15:42:43.221Z,21.30
2019-03-21T15:45:22.666Z,21.20
2019-03-21T15:47:49.742Z,21.20
2019-03-21T15:50:31.342Z,21.10
2019-03-21T15:53:02.682Z,21.10
2019-03-21T15:55:33.851Z,21.10
2019-03-21T15:58:05.540Z,21.00
2019-03-21T16:00:40.910Z,21.00
2019-03-21T16:03:13.191Z,20.90
2019-03-21T16:05:44.557Z,20.90
2019-03-21T16:08:15.891Z,20.80
2019-03-21T16:10:46.992Z,20.80
2019-03-21T16:13:19.833Z,20.80
2019-03-21T16:15:50.957Z,20.70
2019-03-21T16:18:22.059Z,20.70
2019-03-21T16:20:53.236Z,20.70
2019-03-21T16:23:24.418Z,20.60
2019-03-21T16:25:55.517Z,20.60
2019-03-21T16:28:26.883Z,20.60
2019-03-21T16:30:59.650Z,20.60
2019-03-21T16:33:30.921Z,20.50
2019-03-21T16:36:02.001Z,20.50
2019-03-21T16:38:33.155Z,20.40
2019-03-21T16:41:04.351Z,20.40
2019-03-21T16:43:35.565Z,20.40
2019-03-21T16:46:06.975Z,20.40
2019-03-21T16:48:40.966Z,20.40
2019-03-21T16:51:12.407Z,20.40
2019-03-21T16:53:44.002Z,20.30
2019-03-21T16:56:15.622Z,20.30
2019-03-21T16:58:46.905Z,20.30
2019-03-21T17:01:18.193Z,20.30
2019-03-21T17:03:49.501Z,20.20
2019-03-21T17:06:20.748Z,20.20
2019-03-21T17:08:51.857Z,20.20
2019-03-21T17:11:24.076Z,20.20
2019-03-21T17:13:55.249Z,20.10
2019-03-21T17:16:26.400Z,20.10
2019-03-21T17:18:57.571Z,20.10
2019-03-21T17:21:28.970Z,20.00
2019-03-21T17:24:00.105Z,20.10
2019-03-21T17:26:31.215Z,20.00
2019-03-21T17:29:02.375Z,20.00
2019-03-21T17:31:33.856Z,19.90
2019-03-21T17:34:05.111Z,19.90
2019-03-21T17:36:36.268Z,19.90
2019-03-21T17:39:09.730Z,19.80
2019-03-21T17:41:43.243Z,19.80
2019-03-21T17:44:19.357Z,19.70
2019-03-21T17:46:54.789Z,19.90
2019-03-21T17:49:43.024Z,20.00
2019-03-21T17:52:17.887Z,20.20
2019-03-21T17:54:49.090Z,20.40
2019-03-21T17:57:20.340Z,20.50
2019-03-21T17:59:51.411Z,20.60
2019-03-21T18:02:22.480Z,20.70
2019-03-21T18:04:56.982Z,20.70
2019-03-21T18:07:28.249Z,20.70
2019-03-21T18:09:59.476Z,20.70
2019-03-21T18:12:30.599Z,20.60
2019-03-21T18:15:01.797Z,20.50
2019-03-21T18:17:33.004Z,20.50
2019-03-21T18:20:04.665Z,20.40
2019-03-21T18:22:35.801Z,20.30
2019-03-21T18:25:08.657Z,20.30
2019-03-21T18:27:39.768Z,20.20
2019-03-21T18:30:11.147Z,20.10
2019-03-21T18:32:42.318Z,20.00
2019-03-21T18:35:13.782Z,20.00
2019-03-21T18:37:45.295Z,19.80
2019-03-21T18:40:16.613Z,19.80
2019-03-21T18:42:47.864Z,19.70
2019-03-21T18:45:19.073Z,19.60
2019-03-21T18:47:50.220Z,19.50
2019-03-21T18:50:21.379Z,19.40
2019-03-21T18:52:52.595Z,19.40
2019-03-21T18:55:23.730Z,19.30
2019-03-21T18:57:54.943Z,19.20
2019-03-21T19:00:26.127Z,19.10
2019-03-21T19:02:57.301Z,19.10
2019-03-21T19:05:28.418Z,19.00
2019-03-21T19:07:59.443Z,19.10
2019-03-21T19:10:30.798Z,19.10
2019-03-21T19:13:01.993Z,19.10
2019-03-21T19:15:33.197Z,19.10
2019-03-21T19:18:04.430Z,19.10
2019-03-21T19:20:35.577Z,19.10
2019-03-21T19:23:06.778Z,19.10
2019-03-21T19:25:37.840Z,19.10
2019-03-21T19:28:09.343Z,19.00
2019-03-21T19:30:40.522Z,19.00
2019-03-21T19:33:11.600Z,18.90
2019-03-21T19:35:42.750Z,18.90
2019-03-21T19:38:14.110Z,18.80
2019-03-21T19:40:45.600Z,18.80
2019-03-21T19:43:16.960Z,18.70
2019-03-21T19:45:48.026Z,18.60
2019-03-21T19:48:19.127Z,18.60
2019-03-21T19:50:50.307Z,18.50
2019-03-21T19:53:21.502Z,18.50
2019-03-21T19:55:54.251Z,18.40
2019-03-21T19:58:26.096Z,18.30
2019-03-21T20:00:59.104Z,18.30
2019-03-21T20:03:30.229Z,18.20
2019-03-21T20:06:01.394Z,18.20
2019-03-21T20:08:32.602Z,18.10
2019-03-21T20:11:03.749Z,18.10
2019-03-21T20:13:35.027Z,18.00
2019-03-21T20:16:06.404Z,17.90
2019-03-21T20:18:37.714Z,17.90
2019-03-21T20:21:08.838Z,17.80
2019-03-21T20:23:40.070Z,17.80
2019-03-21T20:26:12.237Z,17.70
2019-03-21T20:28:43.372Z,17.70
2019-03-21T20:31:14.564Z,17.70
2019-03-21T20:33:46.228Z,17.60
2019-03-21T20:36:17.681Z,17.50
2019-03-21T20:38:48.817Z,17.50
2019-03-21T20:41:21.050Z,17.50
2019-03-21T20:43:52.258Z,17.40
2019-03-21T20:46:23.389Z,17.30
2019-03-21T20:48:52.226Z,17.30
2019-03-21T20:51:23.369Z,17.20
2019-03-21T20:53:54.834Z,17.20
2019-03-21T20:56:26.127Z,17.20
2019-03-21T20:58:57.309Z,17.10
2019-03-21T21:01:28.572Z,17.10
2019-03-21T21:03:59.694Z,17.00
2019-03-21T21:06:30.944Z,17.00
2019-03-21T21:09:02.154Z,17.00
2019-03-21T21:11:35.242Z,16.90
2019-03-21T21:14:06.588Z,16.90
2019-03-21T21:16:37.843Z,16.80
2019-03-21T21:19:08.973Z,16.80
2019-03-21T21:21:40.146Z,16.70
2019-03-21T21:24:11.151Z,16.70
2019-03-21T21:26:42.297Z,16.70
2019-03-21T21:29:13.361Z,16.70
2019-03-21T21:31:44.693Z,16.60
2019-03-21T21:34:15.875Z,16.60
2019-03-21T21:36:46.922Z,16.50
2019-03-21T21:39:18.026Z,16.50
2019-03-21T21:41:49.165Z,16.50
2019-03-21T21:44:20.247Z,16.40
2019-03-21T21:46:51.383Z,16.40
2019-03-21T21:49:22.428Z,16.40
2019-03-21T21:51:53.589Z,16.40
2019-03-21T21:54:24.674Z,16.30
2019-03-21T21:56:55.798Z,16.30
2019-03-21T21:59:26.936Z,16.20
2019-03-21T22:01:58.332Z,16.20
2019-03-21T22:04:29.529Z,16.20
2019-03-21T22:07:00.598Z,16.10
2019-03-21T22:09:32.275Z,16.10
2019-03-21T22:12:03.578Z,16.10
2019-03-21T22:14:34.866Z,16.00
2019-03-21T22:17:05.989Z,16.00
2019-03-21T22:19:37.003Z,16.00
2019-03-21T22:22:08.102Z,16.00
2019-03-21T22:24:39.173Z,16.00
2019-03-21T22:27:10.293Z,15.90
2019-03-21T22:29:41.720Z,15.90
2019-03-21T22:32:12.730Z,15.80
2019-03-21T22:34:43.864Z,15.80
2019-03-21T22:37:15.105Z,15.80
2019-03-21T22:39:46.260Z,15.80
2019-03-21T22:42:17.352Z,15.70
2019-03-21T22:44:48.534Z,15.80
2019-03-21T22:47:19.653Z,15.70
2019-03-21T22:49:50.749Z,15.70
2019-03-21T22:52:21.817Z,15.70
2019-03-21T22:54:53.064Z,15.70
2019-03-21T22:57:24.510Z,15.60
2019-03-21T22:59:55.665Z,15.60
2019-03-21T23:02:26.703Z,15.60
2019-03-21T23:04:57.824Z,15.50
2019-03-21T23:07:28.897Z,15.60
2019-03-21T23:10:00.026Z,15.50
2019-03-21T23:12:31.144Z,15.50
2019-03-21T23:15:02.414Z,15.50
2019-03-21T23:17:38.441Z,15.50
2019-03-21T23:20:09.558Z,15.50
2019-03-21T23:22:40.661Z,15.40
2019-03-21T23:25:12.193Z,15.40
2019-03-21T23:27:43.277Z,15.40
2019-03-21T23:30:14.942Z,15.40
2019-03-21T23:32:46.224Z,15.40
2019-03-21T23:35:17.738Z,15.30
2019-03-21T23:37:48.768Z,15.30
2019-03-21T23:40:19.978Z,15.30
2019-03-21T23:42:51.105Z,15.30
2019-03-21T23:45:22.284Z,15.30
2019-03-21T23:47:53.419Z,15.20
2019-03-21T23:50:24.562Z,15.20
2019-03-21T23:52:55.792Z,15.20
2019-03-21T23:55:26.868Z,15.20
2019-03-21T23:57:58.014Z,15.20
